createdAt,value
2023-08-04T00:00:55.234Z,99979.59
2023-08-04T00:03:23.283Z,99979.59
2023-08-04T00:05:51.189Z,99985.19
2023-08-04T00:08:19.099Z,99982.94
2023-08-04T00:10:48.535Z,99987.81
2023-08-04T00:13:16.482Z,99989.91
2023-08-04T00:15:44.393Z,99999.81
2023-08-04T00:18:12.368Z,99999.81
2023-08-04T00:20:40.325Z,100005.81
2023-08-04T00:23:08.234Z,100011.41
2023-08-04T00:25:36.158Z,100016.16
2023-08-04T00:28:05.851Z,100011.59
2023-08-04T00:30:33.726Z,100002.69
2023-08-04T00:33:02.538Z,100015.13
2023-08-04T00:35:30.558Z,100018.41
2023-08-04T00:37:58.570Z,100019.63
2023-08-04T00:40:26.554Z,100024.19
2023-08-04T00:42:54.471Z,100030.63
2023-08-04T00:45:24.225Z,100023.75
2023-08-04T00:47:53.327Z,100026.63
2023-08-04T00:50:21.715Z,100032.88
2023-08-04T00:52:50.866Z,100026.47
2023-08-04T00:55:19.573Z,100030.84
2023-08-04T00:57:49.071Z,100032.03
2023-08-04T01:00:17.043Z,100038.69
2023-08-04T01:02:46.397Z,100029.94
2023-08-04T01:05:14.419Z,100030.78
2023-08-04T01:07:46.173Z,100031.53
2023-08-04T01:10:19.197Z,100036.53
2023-08-04T01:12:52.892Z,100033.81
2023-08-04T01:15:24.512Z,100031.09
2023-08-04T01:17:54.030Z,100035.22
2023-08-04T01:20:22.064Z,100043.50
2023-08-04T01:22:51.471Z,100035.28
2023-08-04T01:25:19.791Z,100039.78
2023-08-04T01:27:51.815Z,100051.94
2023-08-04T01:30:21.795Z,100062.72
2023-08-04T01:32:50.012Z,100069.94
2023-08-04T01:35:18.642Z,100068.31
2023-08-04T01:37:46.714Z,100076.16
2023-08-04T01:40:17.104Z,100095.19
2023-08-04T01:42:45.056Z,100108.22
2023-08-04T01:45:12.996Z,100108.00
2023-08-04T01:50:23.405Z,100126.81
2023-08-04T01:52:51.436Z,100134.09
2023-08-04T01:55:20.841Z,100139.03
2023-08-04T01:57:48.733Z,100151.44
2023-08-04T02:00:17.558Z,100159.50
2023-08-04T02:02:45.492Z,100156.38
2023-08-04T02:05:15.014Z,100154.13
2023-08-04T02:07:42.974Z,100163.41
2023-08-04T02:10:11.291Z,100160.94
2023-08-04T02:12:40.568Z,100161.41
2023-08-04T02:15:09.342Z,100166.75
2023-08-04T02:17:37.725Z,100163.25
2023-08-04T02:20:07.231Z,100171.97
2023-08-04T02:22:35.106Z,100176.69
2023-08-04T02:25:03.004Z,100177.13
2023-08-04T02:27:31.982Z,100180.41
2023-08-04T02:30:01.283Z,100179.19
2023-08-04T02:32:32.171Z,100193.22
2023-08-04T02:35:00.046Z,100187.25
2023-08-04T02:37:27.940Z,100189.94
2023-08-04T02:39:56.101Z,100189.94
2023-08-04T02:42:24.113Z,100190.34
2023-08-04T02:44:55.028Z,100187.88
2023-08-04T02:47:24.447Z,100185.38
2023-08-04T02:49:52.408Z,100194.88
2023-08-04T02:52:21.314Z,100194.25
2023-08-04T02:54:49.345Z,100192.00
2023-08-04T02:57:17.325Z,100188.25
2023-08-04T02:59:45.299Z,100191.34
2023-08-04T03:02:13.308Z,100189.50
2023-08-04T03:04:42.534Z,100184.09
2023-08-04T03:07:10.451Z,100198.19
2023-08-04T03:09:38.321Z,100199.41
2023-08-04T03:12:06.961Z,100193.63
2023-08-04T03:14:34.880Z,100189.91
2023-08-04T03:17:02.825Z,100192.00
2023-08-04T03:19:30.773Z,100204.38
2023-08-04T03:22:00.006Z,100199.63
2023-08-04T03:24:27.950Z,100203.75
2023-08-04T03:26:55.876Z,100203.94
2023-08-04T03:29:23.818Z,100203.13
2023-08-04T03:31:51.797Z,100200.84
2023-08-04T03:34:19.770Z,100202.31
2023-08-04T03:36:47.652Z,100211.63
2023-08-04T03:39:16.921Z,100221.56
2023-08-04T03:41:45.233Z,100220.91
2023-08-04T03:44:13.507Z,100228.78
2023-08-04T03:46:41.442Z,100232.09
2023-08-04T03:49:09.363Z,100235.81
2023-08-04T03:51:37.254Z,100230.03
2023-08-04T03:54:06.135Z,100227.13
2023-08-04T03:56:35.410Z,100232.09
2023-08-04T03:59:06.342Z,100236.44
2023-08-04T04:01:34.262Z,100235.00
2023-08-04T04:04:02.199Z,100236.44
2023-08-04T04:06:30.075Z,100234.16
2023-08-04T04:08:58.018Z,100234.38
2023-08-04T04:11:26.069Z,100239.94
2023-08-04T04:13:55.364Z,100246.53
2023-08-04T04:16:23.451Z,100253.34
2023-08-04T04:18:51.349Z,100255.84
2023-08-04T04:21:19.277Z,100256.06
2023-08-04T04:23:47.160Z,100259.78
2023-08-04T04:26:15.085Z,100267.22
2023-08-04T04:28:43.029Z,100254.00
2023-08-04T04:31:12.312Z,100271.34
2023-08-04T04:33:40.249Z,100277.13
2023-08-04T04:36:08.229Z,100287.88
2023-08-04T04:38:36.135Z,100297.59
2023-08-04T04:41:04.553Z,100302.72
2023-08-04T04:43:32.785Z,100300.44
2023-08-04T04:46:00.916Z,100305.19
2023-08-04T04:48:30.293Z,100306.84
2023-08-04T04:50:58.139Z,100311.41
2023-08-04T04:53:26.157Z,100306.44
2023-08-04T04:55:54.077Z,100315.97
2023-08-04T04:58:21.952Z,100319.06
2023-08-04T05:00:49.803Z,100320.09
2023-08-04T05:03:17.704Z,100330.47
2023-08-04T05:05:47.043Z,100332.50
2023-08-04T05:08:14.933Z,100319.72
2023-08-04T05:10:42.993Z,100330.47
2023-08-04T05:13:10.832Z,100337.72
2023-08-04T05:15:38.750Z,100334.41
2023-08-04T05:18:06.651Z,100345.38
2023-08-04T05:20:34.524Z,100330.88
2023-08-04T05:23:03.894Z,100336.66
2023-08-04T05:25:31.838Z,100343.69
2023-08-04T05:28:20.697Z,100344.06
2023-08-04T05:30:48.717Z,100358.59
2023-08-04T05:33:16.685Z,100352.41
2023-08-04T05:35:48.281Z,100354.03
2023-08-04T05:38:17.571Z,100356.72
2023-08-04T05:40:46.385Z,100367.06
2023-08-04T05:43:15.074Z,100356.72
2023-08-04T05:45:44.894Z,100365.63
2023-08-04T05:48:13.177Z,100368.50
2023-08-04T05:50:41.186Z,100377.25
2023-08-04T05:53:09.175Z,100379.69
2023-08-04T05:55:38.622Z,100379.91
2023-08-04T05:58:06.636Z,100385.53
2023-08-04T06:00:36.608Z,100387.19
2023-08-04T06:03:05.425Z,100391.09
2023-08-04T06:05:33.540Z,100395.03
2023-08-04T06:08:02.085Z,100395.84
2023-08-04T06:10:29.968Z,100404.53
2023-08-04T06:12:59.236Z,100407.00
2023-08-04T06:15:27.183Z,100409.06
2023-08-04T06:17:55.149Z,100408.66
2023-08-04T06:20:24.589Z,100405.25
2023-08-04T06:22:52.476Z,100403.97
2023-08-04T06:25:20.375Z,100410.41
2023-08-04T06:27:48.276Z,100408.16
2023-08-04T06:30:17.857Z,100414.97
2023-08-04T06:32:47.286Z,100424.09
2023-08-04T06:35:15.337Z,100433.34
2023-08-04T06:37:43.441Z,100434.56
2023-08-04T06:40:12.392Z,100441.59
2023-08-04T06:42:40.338Z,100457.66
2023-08-04T06:45:09.410Z,100448.75
2023-08-04T06:47:39.640Z,100452.13
2023-08-04T06:50:08.718Z,100455.84
2023-08-04T06:52:36.902Z,100460.00
2023-08-04T06:55:06.090Z,100463.94
2023-08-04T06:57:34.233Z,100470.75
2023-08-04T07:00:02.127Z,100470.91
2023-08-04T07:02:30.069Z,100478.56
2023-08-04T07:04:59.408Z,100476.53
2023-08-04T07:07:27.506Z,100466.56
2023-08-04T07:09:55.452Z,100466.91
2023-08-04T07:12:23.408Z,100468.03
2023-08-04T07:14:51.331Z,100469.81
2023-08-04T07:17:19.147Z,100472.72
2023-08-04T07:19:48.889Z,100478.47
2023-08-04T07:22:18.221Z,100489.09
2023-08-04T07:24:48.573Z,100487.63
2023-08-04T07:27:16.458Z,100498.50
2023-08-04T07:29:44.345Z,100503.63
2023-08-04T07:32:12.236Z,100502.72
2023-08-04T07:34:40.177Z,100500.66
2023-08-04T07:37:08.080Z,100509.41
2023-08-04T07:39:37.249Z,100501.41
2023-08-04T07:42:06.030Z,100511.66
2023-08-04T07:44:35.348Z,100511.66
2023-08-04T07:47:03.316Z,100510.03
2023-08-04T07:49:31.532Z,100523.53
2023-08-04T07:51:59.440Z,100514.81
2023-08-04T07:54:27.299Z,100527.91
2023-08-04T07:56:56.776Z,100520.72
2023-08-04T07:59:24.671Z,100518.19
2023-08-04T08:01:52.651Z,100520.19
2023-08-04T08:04:20.662Z,100517.38
2023-08-04T08:06:48.971Z,100517.72
2023-08-04T08:09:16.927Z,100518.75
2023-08-04T08:11:44.859Z,100517.34
2023-08-04T08:14:14.285Z,100523.53
2023-08-04T08:16:42.285Z,100529.03
2023-08-04T08:19:11.078Z,100536.91
2023-08-04T08:21:38.947Z,100525.72
2023-08-04T08:24:07.066Z,100530.19
2023-08-04T08:26:34.962Z,100533.50
2023-08-04T08:29:03.506Z,100539.25
2023-08-04T08:31:32.817Z,100545.53
2023-08-04T08:34:00.708Z,100549.41
2023-08-04T08:36:28.714Z,100555.56
2023-08-04T08:38:56.673Z,100561.16
2023-08-04T08:41:24.777Z,100550.22
2023-08-04T08:43:52.829Z,100557.19
2023-08-04T08:46:20.915Z,100557.19
2023-08-04T08:48:52.139Z,100566.94
2023-08-04T08:51:22.408Z,100568.31
2023-08-04T08:53:50.504Z,100570.13
2023-08-04T08:56:18.960Z,100571.91
2023-08-04T08:58:46.988Z,100577.72
2023-08-04T09:01:15.110Z,100573.47
2023-08-04T09:03:43.372Z,100571.00
2023-08-04T09:06:12.740Z,100578.91
2023-08-04T09:08:40.773Z,100578.72
2023-08-04T09:11:09.113Z,100572.09
2023-08-04T09:13:41.457Z,100575.44
2023-08-04T09:16:13.104Z,100578.03
2023-08-04T09:18:41.858Z,100591.41
2023-08-04T09:21:13.731Z,100589.03
2023-08-04T09:23:45.276Z,100594.06
2023-08-04T09:26:13.203Z,100589.78
2023-08-04T09:28:41.112Z,100593.03
2023-08-04T09:31:10.265Z,100592.97
2023-08-04T09:33:39.513Z,100600.81
2023-08-04T09:36:08.866Z,100603.44
2023-08-04T09:38:39.430Z,100592.28
2023-08-04T09:41:08.400Z,100602.50
2023-08-04T09:43:36.446Z,100605.00
2023-08-04T09:46:06.505Z,100608.38
2023-08-04T09:48:35.103Z,100597.69
2023-08-04T09:51:07.530Z,100601.47
2023-08-04T09:53:55.386Z,100596.00
2023-08-04T09:56:27.266Z,100596.72
2023-08-04T09:58:55.257Z,100589.09
2023-08-04T10:01:23.244Z,100587.59
2023-08-04T10:03:55.130Z,100585.13
2023-08-04T10:06:23.477Z,100591.91
2023-08-04T10:08:56.035Z,100593.78
2023-08-04T10:11:24.406Z,100592.09
2023-08-04T10:13:53.860Z,100596.97
2023-08-04T10:16:24.501Z,100598.22
2023-08-04T10:18:53.912Z,100596.03
2023-08-04T10:21:24.995Z,100598.81
2023-08-04T10:23:54.790Z,100606.63
2023-08-04T10:26:22.801Z,100610.06
2023-08-04T10:29:04.110Z,100613.59
2023-08-04T10:31:46.098Z,100613.25
2023-08-04T10:34:18.945Z,100614.78
2023-08-04T10:37:05.519Z,100620.44
2023-08-04T10:39:36.541Z,100631.50
2023-08-04T10:42:08.310Z,100630.78
2023-08-04T10:44:53.570Z,100632.09
2023-08-04T10:47:36.213Z,100631.13
2023-08-04T10:50:05.537Z,100630.31
2023-08-04T10:52:35.427Z,100627.13
2023-08-04T10:55:07.723Z,100619.59
2023-08-04T10:57:37.749Z,100620.81
2023-08-04T11:00:07.715Z,100619.97
2023-08-04T11:02:36.484Z,100628.31
2023-08-04T11:05:06.275Z,100622.00
2023-08-04T11:07:34.656Z,100610.34
2023-08-04T11:10:07.097Z,100605.31
2023-08-04T11:12:37.776Z,100594.72
2023-08-04T11:15:06.851Z,100595.78
2023-08-04T11:17:34.984Z,100592.94
2023-08-04T11:20:03.997Z,100597.38
2023-08-04T11:22:33.021Z,100600.09
2023-08-04T11:25:00.993Z,100587.44
2023-08-04T11:27:30.333Z,100588.84
2023-08-04T11:29:58.254Z,100592.38
2023-08-04T11:32:26.625Z,100593.84
2023-08-04T11:34:57.016Z,100588.38
2023-08-04T11:37:25.583Z,100599.44
2023-08-04T11:39:54.906Z,100600.50
2023-08-04T11:42:24.811Z,100610.25
2023-08-04T11:44:54.094Z,100615.94
2023-08-04T11:47:22.048Z,100619.06
2023-08-04T11:49:50.263Z,100604.44
2023-08-04T11:52:18.265Z,100616.00
2023-08-04T11:54:53.349Z,100622.78
2023-08-04T11:57:22.098Z,100627.78
2023-08-04T11:59:50.426Z,100625.97
2023-08-04T12:02:19.981Z,100638.03
2023-08-04T12:04:48.384Z,100644.41
2023-08-04T12:07:17.064Z,100640.09
2023-08-04T12:09:47.139Z,100639.50
2023-08-04T12:12:15.005Z,100657.69
2023-08-04T12:15:00.162Z,100660.56
2023-08-04T12:17:38.881Z,100654.81
2023-08-04T12:20:08.503Z,100653.13
2023-08-04T12:22:37.471Z,100656.31
2023-08-04T12:25:06.507Z,100653.38
2023-08-04T12:27:34.971Z,100648.75
2023-08-04T12:30:03.316Z,100639.81
2023-08-04T12:32:32.890Z,100637.69
2023-08-04T12:35:02.388Z,100639.09
2023-08-04T12:37:30.439Z,100645.63
2023-08-04T12:39:58.380Z,100640.19
2023-08-04T12:42:26.366Z,100639.13
2023-08-04T12:44:54.273Z,100641.63
2023-08-04T12:47:22.730Z,100642.94
2023-08-04T12:49:51.040Z,100665.19
2023-08-04T12:52:21.019Z,100667.44
2023-08-04T12:54:49.018Z,100668.47
2023-08-04T12:57:16.985Z,100672.09
2023-08-04T12:59:44.904Z,100677.72
2023-08-04T13:02:12.854Z,100688.94
2023-08-04T13:04:40.920Z,100682.63
2023-08-04T13:07:08.991Z,100685.81
2023-08-04T13:09:38.277Z,100686.84
2023-08-04T13:12:06.736Z,100695.97
2023-08-04T13:14:34.615Z,100687.59
2023-08-04T13:17:02.594Z,100687.03
2023-08-04T13:19:30.540Z,100690.31
2023-08-04T13:21:58.522Z,100686.66
2023-08-04T13:24:26.417Z,100685.00
2023-08-04T13:26:55.713Z,100689.41
2023-08-04T13:29:23.835Z,100688.25
2023-08-04T13:31:52.098Z,100684.63
2023-08-04T13:34:20.311Z,100684.84
2023-08-04T13:36:48.251Z,100701.69
2023-08-04T13:39:16.145Z,100699.63
2023-08-04T13:41:44.001Z,100698.91
2023-08-04T13:44:13.351Z,100702.19
2023-08-04T13:46:41.490Z,100683.34
2023-08-04T13:49:09.499Z,100683.38
2023-08-04T13:51:37.406Z,100681.38
2023-08-04T13:54:05.520Z,100677.78
2023-08-04T13:56:34.655Z,100672.72
2023-08-04T13:59:02.604Z,100677.22
2023-08-04T14:01:32.261Z,100678.66
2023-08-04T14:04:00.311Z,100689.44
2023-08-04T14:06:29.489Z,100685.69
2023-08-04T14:08:57.371Z,100688.06
2023-08-04T14:11:25.261Z,100684.09
2023-08-04T14:13:53.228Z,100678.25
2023-08-04T14:16:21.205Z,100679.78
2023-08-04T14:18:50.500Z,100675.41
2023-08-04T14:21:18.556Z,100674.94
2023-08-04T14:23:46.390Z,100671.13
2023-08-04T14:26:14.417Z,100678.63
2023-08-04T14:28:42.390Z,100683.66
2023-08-04T14:31:10.389Z,100685.38
2023-08-04T14:33:38.383Z,100690.69
2023-08-04T14:36:07.853Z,100698.16
2023-08-04T14:38:35.931Z,100695.19
2023-08-04T14:41:03.888Z,100701.16
2023-08-04T14:43:31.776Z,100702.69
2023-08-04T14:45:59.741Z,100697.50
2023-08-04T14:48:27.692Z,100703.16
2023-08-04T14:50:55.748Z,100703.03
2023-08-04T14:53:25.375Z,100705.06
2023-08-04T14:55:53.339Z,100705.25
2023-08-04T14:58:21.358Z,100709.25
2023-08-04T15:00:51.242Z,100705.97
2023-08-04T15:03:20.691Z,100712.56
2023-08-04T15:05:48.728Z,100717.19
2023-08-04T15:08:16.655Z,100711.66
2023-08-04T15:10:46.030Z,100721.09
2023-08-04T15:13:13.924Z,100708.09
2023-08-04T15:15:41.892Z,100705.72
2023-08-04T15:18:09.961Z,100695.59
2023-08-04T15:20:38.739Z,100692.16
2023-08-04T15:23:06.655Z,100684.22
2023-08-04T15:25:34.596Z,100667.88
2023-08-04T15:28:03.897Z,100654.59
2023-08-04T15:30:35.425Z,100662.94
2023-08-04T15:33:03.393Z,100660.84
2023-08-04T15:35:31.445Z,100664.59
2023-08-04T15:38:00.259Z,100672.31
2023-08-04T15:40:28.293Z,100670.38
2023-08-04T15:42:56.239Z,100666.03
2023-08-04T15:45:25.631Z,100671.66
2023-08-04T15:47:53.703Z,100674.72
2023-08-04T15:50:21.676Z,100670.16
2023-08-04T15:52:49.569Z,100674.53
2023-08-04T15:55:17.525Z,100673.84
2023-08-04T15:57:45.419Z,100675.94
2023-08-04T16:00:14.528Z,100676.75
2023-08-04T16:02:43.807Z,100681.16
2023-08-04T16:05:11.740Z,100677.13
2023-08-04T16:07:39.633Z,100677.34
2023-08-04T16:10:08.804Z,100688.44
2023-08-04T16:12:36.781Z,100676.50
2023-08-04T16:15:05.292Z,100676.84
2023-08-04T16:17:34.493Z,100674.81
2023-08-04T16:20:04.433Z,100680.16
2023-08-04T16:22:32.316Z,100688.91
2023-08-04T16:25:00.232Z,100690.06
2023-08-04T16:27:28.050Z,100677.59
2023-08-04T16:29:55.924Z,100681.38
2023-08-04T16:32:23.875Z,100674.06
2023-08-04T16:34:51.740Z,100676.13
2023-08-04T16:37:21.154Z,100677.41
2023-08-04T16:39:49.343Z,100678.38
2023-08-04T16:42:17.220Z,100678.59
2023-08-04T16:44:45.111Z,100676.91
2023-08-04T16:47:13.013Z,100678.56
2023-08-04T16:49:40.828Z,100675.44
2023-08-04T16:52:09.071Z,100683.25
2023-08-04T16:54:38.283Z,100682.69
2023-08-04T16:57:06.866Z,100683.06
2023-08-04T16:59:34.815Z,100688.28
2023-08-04T17:02:02.784Z,100689.88
2023-08-04T17:04:32.779Z,100683.56
2023-08-04T17:07:00.717Z,100690.09
2023-08-04T17:09:28.575Z,100685.56
2023-08-04T17:11:57.868Z,100683.97
2023-08-04T17:14:25.817Z,100681.06
2023-08-04T17:16:53.754Z,100673.69
2023-08-04T17:19:21.662Z,100678.47
2023-08-04T17:21:49.669Z,100674.72
2023-08-04T17:24:17.590Z,100667.47
2023-08-04T17:26:45.500Z,100673.75
2023-08-04T17:29:14.735Z,100679.31
2023-08-04T17:31:45.594Z,100675.31
2023-08-04T17:34:13.797Z,100677.56
2023-08-04T17:36:42.269Z,100684.41
2023-08-04T17:39:10.246Z,100684.50
2023-08-04T17:41:38.187Z,100679.47
2023-08-04T17:44:06.854Z,100679.28
2023-08-04T17:46:36.865Z,100686.97
2023-08-04T17:49:04.862Z,100695.41
2023-08-04T17:51:32.940Z,100689.06
2023-08-04T17:54:00.788Z,100693.94
2023-08-04T17:56:28.676Z,100692.13
2023-08-04T17:58:56.620Z,100696.38
2023-08-04T18:01:24.636Z,100693.34
2023-08-04T18:03:54.085Z,100701.31
2023-08-04T18:06:22.024Z,100708.94
2023-08-04T18:08:50.401Z,100710.75
2023-08-04T18:11:18.314Z,100713.59
2023-08-04T18:13:46.462Z,100724.38
2023-08-04T18:16:14.789Z,100730.50
2023-08-04T18:18:42.726Z,100726.53
2023-08-04T18:21:12.703Z,100731.72
2023-08-04T18:23:40.603Z,100738.78
2023-08-04T18:26:09.826Z,100740.31
2023-08-04T18:28:37.735Z,100740.53
2023-08-04T18:31:05.683Z,100742.19
2023-08-04T18:33:33.567Z,100742.78
2023-08-04T18:36:02.077Z,100754.97
2023-08-04T18:38:31.476Z,100765.59
2023-08-04T18:41:03.924Z,100769.53
2023-08-04T18:43:31.905Z,100762.25
2023-08-04T18:45:59.836Z,100773.44
2023-08-04T18:48:27.796Z,100773.94
2023-08-04T18:50:55.722Z,100779.91
2023-08-04T18:53:23.765Z,100782.81
2023-08-04T18:55:53.148Z,100786.84
2023-08-04T18:58:21.009Z,100790.03
2023-08-04T19:00:49.097Z,100801.34
2023-08-04T19:03:17.261Z,100797.47
2023-08-04T19:05:45.326Z,100797.19
2023-08-04T19:08:13.318Z,100806.94
2023-08-04T19:10:41.405Z,100819.75
2023-08-04T19:13:10.693Z,100819.91
2023-08-04T19:15:38.704Z,100819.38
2023-08-04T19:18:06.742Z,100816.72
2023-08-04T19:20:34.720Z,100814.25
2023-08-04T19:23:02.697Z,100812.22
2023-08-04T19:25:30.698Z,100803.31
2023-08-04T19:27:58.644Z,100806.84
2023-08-04T19:30:28.021Z,100810.53
2023-08-04T19:32:58.345Z,100823.28
2023-08-04T19:35:27.417Z,100834.47
2023-08-04T19:37:55.416Z,100824.94
2023-08-04T19:40:23.336Z,100827.66
2023-08-04T19:42:51.359Z,100831.22
2023-08-04T19:45:19.411Z,100836.22
2023-08-04T19:47:48.849Z,100842.00
2023-08-04T19:50:16.987Z,100835.81
2023-08-04T19:52:44.993Z,100839.75
2023-08-04T19:55:18.317Z,100842.28
2023-08-04T19:57:49.482Z,100843.31
2023-08-04T20:00:17.751Z,100844.16
2023-08-04T20:02:45.833Z,100843.56
2023-08-04T20:05:15.330Z,100845.22
2023-08-04T20:07:43.312Z,100853.31
2023-08-04T20:10:12.035Z,100850.00
2023-08-04T20:12:39.985Z,100849.78
2023-08-04T20:15:08.790Z,100849.59
2023-08-04T20:17:36.837Z,100841.91
2023-08-04T20:20:05.899Z,100835.91
2023-08-04T20:22:35.200Z,100845.22
2023-08-04T20:25:04.008Z,100849.78
2023-08-04T20:27:31.830Z,100855.78
2023-08-04T20:29:59.803Z,100852.06
2023-08-04T20:32:27.814Z,100846.22
2023-08-04T20:34:55.919Z,100846.66
2023-08-04T20:37:24.036Z,100847.47
2023-08-04T20:39:54.697Z,100853.28
2023-08-04T20:42:22.776Z,100848.69
2023-08-04T20:44:51.576Z,100850.38
2023-08-04T20:47:19.595Z,100855.34
2023-08-04T20:49:47.598Z,100851.78
2023-08-04T20:52:16.709Z,100855.94
2023-08-04T20:54:45.810Z,100852.00
2023-08-04T20:57:15.130Z,100864.84
2023-08-04T20:59:43.050Z,100869.59
2023-08-04T21:02:11.013Z,100871.22
2023-08-04T21:04:38.988Z,100872.47
2023-08-04T21:07:09.078Z,100866.44
2023-08-04T21:09:39.152Z,100865.19
2023-08-04T21:12:07.698Z,100871.81
2023-08-04T21:14:37.001Z,100862.25
2023-08-04T21:17:05.270Z,100879.66
2023-08-04T21:19:33.286Z,100879.66
2023-08-04T21:22:01.270Z,100866.19
2023-08-04T21:24:29.274Z,100874.47
2023-08-04T21:26:57.344Z,100880.06
2023-08-04T21:29:25.467Z,100874.06
2023-08-04T21:31:54.829Z,100873.22
2023-08-04T21:34:22.806Z,100874.25
2023-08-04T21:36:51.085Z,100875.78
2023-08-04T21:39:19.274Z,100877.84
2023-08-04T21:41:47.178Z,100883.88
2023-08-04T21:44:15.420Z,100874.31
2023-08-04T21:46:43.712Z,100879.28
2023-08-04T21:49:17.598Z,100872.25
2023-08-04T21:51:46.042Z,100868.94
2023-08-04T21:54:14.364Z,100864.78
2023-08-04T21:56:42.342Z,100857.28
2023-08-04T21:59:11.238Z,100858.94
2023-08-04T22:01:39.393Z,100854.38
2023-08-04T22:04:07.381Z,100874.25
2023-08-04T22:06:36.682Z,100868.81
2023-08-04T22:09:04.684Z,100874.59
2023-08-04T22:11:32.569Z,100867.72
2023-08-04T22:14:00.782Z,100877.25
2023-08-04T22:16:28.967Z,100876.63
2023-08-04T22:18:56.965Z,100869.94
2023-08-04T22:21:24.992Z,100879.66
2023-08-04T22:23:54.319Z,100885.44
2023-08-04T22:26:22.288Z,100877.38
2023-08-04T22:28:50.246Z,100880.25
2023-08-04T22:31:18.242Z,100886.41
2023-08-04T22:33:46.134Z,100887.66
2023-08-04T22:36:13.996Z,100895.09
2023-08-04T22:38:41.910Z,100897.34
2023-08-04T22:41:11.190Z,100894.84
2023-08-04T22:43:39.148Z,100893.38
2023-08-04T22:46:07.122Z,100895.25
2023-08-04T22:48:35.076Z,100900.84
2023-08-04T22:51:03.005Z,100905.56
2023-08-04T22:53:30.938Z,100910.09
2023-08-04T22:56:00.618Z,100913.19
2023-08-04T22:58:29.887Z,100913.19
2023-08-04T23:00:58.075Z,100912.34
2023-08-04T23:03:26.038Z,100908.84
2023-08-04T23:05:54.040Z,100911.09
2023-08-04T23:08:21.942Z,100912.13
2023-08-04T23:10:56.159Z,100913.34
2023-08-04T23:13:24.317Z,100919.75
2023-08-04T23:15:53.721Z,100921.41
2023-08-04T23:18:21.685Z,100913.16
2023-08-04T23:20:49.965Z,100916.97
2023-08-04T23:23:18.296Z,100921.06
2023-08-04T23:25:46.768Z,100908.00
2023-08-04T23:28:15.037Z,100912.88
2023-08-04T23:30:46.869Z,100906.69
2023-08-04T23:33:17.232Z,100904.38
2023-08-04T23:35:52.411Z,100901.31
2023-08-04T23:38:20.474Z,100896.72
2023-08-04T23:40:48.507Z,100894.03
2023-08-04T23:43:16.598Z,100895.88
2023-08-04T23:45:44.515Z,100897.50
2023-08-04T23:48:12.450Z,100897.84
2023-08-04T23:50:41.712Z,100888.72
2023-08-04T23:53:09.648Z,100891.59
2023-08-04T23:55:37.494Z,100896.09
2023-08-04T23:58:05.457Z,100897.75
